Aérodrome :
LOGIN :

S'inscrire | Disclaimer

   EN    FR    IT 

 










Légende :    VFR   VFR Marginal   IFR   IFR Intensif   IFR Très Intensif
Visi : 
Plafond : 
>= 8 km
>= 3000ft
5 à 8 km
1000 à 3000 ft
1500m à 5 km
500 à 1000 ft
800 à 1500m
200 à 500 ft
< 800m
< 200 ft
Symboles :   Orages  Brouillard  Fortes neiges  Fortes précipitations  Vent > 20 kt
SIGMETs :   Divers  Orages  Givrage  Turbulence  Onde Orograph.  Cendres Volcan.






- Altitude de l'aérodrome : 479 ft
- Code IATA : DOL


LFRG - Deauville

DERNIER METAR :
  • 071830Z AUTO 22007KT 190V250 9999 OVC026 09/06 Q1017 TEMPO BKN007

METARs EXPIRÉS :
  • 071800Z AUTO 21007KT 9999 OVC027 10/07 Q1017 TEMPO BKN007
  • 071730Z AUTO 22007KT 9999 OVC028 10/07 Q1017 TEMPO BKN007
  • 071700Z AUTO 21006KT 9999 OVC031 10/08 Q1017 TEMPO BKN007
  • 071630Z AUTO 21007KT 9999 OVC032 10/08 Q1017 TEMPO BKN007
  • 071600Z AUTO 22006KT 9999 FEW015 OVC033 10/08 Q1017 TEMPO BKN010

TAF TAF LFRG
Valide du 07 à 15h jusqu'au 08 à 00h UTC


071400Z 0715/0724 22008KT 9999 BKN030
TEMPO 0715/0718 BKN010
TEMPO 0718/0724 BKN007
BECMG 0722/0724 21015G25KT
ATIS : +33 2 31 65 65 36



MET'MAP, la Météo Aéronautique d'un coup d'oeil ! - Copyright ORBIFLY Décembre 2007 - Disclaimer

ORBIFLY MET'MAP TEAM :

Programmation & Développement : Alexandra Zaïnal
Sur une idée originale de : Baudouin d'Aumeries
Assistance à la programmation : Marc-Olivier Méhu
Soutien technique & logistique : Manuel Goepfert

Contact : metmap@orbifly.com




SOURCES & CREDITS :

   NOAA